Sheridan, WY

8:19 PM MDT on September 14, 2014 (GMT -0600)
Johnson County | Change Station
CLOSE
Current Station
Airport
Location: Buffalo,
Elevation: 4967 ft
Nearby Weather Stations

Elev 4967 ft 44.38 °N, 106.72 °W | Updated 26 minutes ago

Clear
Clear
53 °F
Feels Like 53 °F
N
9
Wind Variable Wind from NNW

Today
High -- | Low -- °F
--% Chance of Precip.
Yesterday
High -- | Low -- °F
Precip. -- in
6:45 AM 7:20 PM
Waning Gibbous, 60% visible
Pressure 30.14 in
Visibility 10.0 miles
Clouds Clear
Dew Point 40 °F
Humidity 61%
Rainfall 0.00 in
Snow Depth Not available.
UV 0 out of 12
Pollen 5.50 out of 12
Air Quality Not available.
Flu Activity Not available.
METAR KBYG 150153Z AUTO 33008KT 10SM CLR 12/04 A3017 RMK AO2 SLP205 T01170044 $

More Conditions Fewer Conditions

Pressure 30.14 in
Visibility 10.0 miles
Clouds Clear
Dew Point 40 °F
Humidity 61%
Rainfall 0.00 in
Snow Depth Not available.
UV 0 out of 12
Pollen 5.50 out of 12
Air Quality Not available.
Flu Activity Not available.
METAR KBYG 150153Z AUTO 33008KT 10SM CLR 12/04 A3017 RMK AO2 SLP205 T01170044 $

More Conditions Fewer Conditions

10-Day Weather Forecast

Almanac

Astronomy

Sep. 14, 2014 Rise Set
Actual Time 6:45 AM MDT 7:20 PM MDT
Civil Twilight 6:16 AM MDT 7:49 PM MDT
Nautical Twilight 5:41 AM MDT 8:24 PM MDT
Astronomical Twilight 5:05 AM MDT 9:00 PM MDT
Moon 11:00 PM MDT (9/14) 1:08 PM MDT (9/14)
Length of Visible Light 13h 33m
Length of Day
12h 34m
Tomorrow will be 3m 5s shorter.
Waning Gibbous, 60% of the Moon is Illuminated
Today
Waning Gibbous
Sep 15
Last Quarter
Sep 24
New
Oct 1
First Quarter
Oct 8
Full

Today's Extremes

State Highs State Lows

Community

WunderPhotos

Upload Photos

1,753,371 photos uploaded!

Nearby

Snow Depth

Station Depth Elevation
Burgess Junction 0 in 7880 ft
Shell Creek 6 in 9580 ft
Hansen Sawmill 0 in 8360 ft
Middle Powder 0 in 7760 ft
Cole Canyon 0 in 5910 ft

Earthquake Activity

City Distance Mag. Time & Date
No recent earthquake activity has been reported nearby.
Minimum magnitude displayed is 2.5.

Coastal Water Temperatures

Place Temperature
No Stations Reporting

Nearby Weather Stations